sensor_id;sensor_type;location;lat;lon;timestamp;P1;durP1;ratioP1;P2;durP2;ratioP2
24729;SDS011;12832;52.392;13.066;2022-12-07T00:01:36;0.93;;;0.93;;
24729;SDS011;12832;52.392;13.066;2022-12-07T00:04:09;1.13;;;1.10;;
24729;SDS011;12832;52.392;13.066;2022-12-07T00:06:37;1.45;;;1.35;;
24729;SDS011;12832;52.392;13.066;2022-12-07T00:09:06;1.05;;;1.00;;
24729;SDS011;12832;52.392;13.066;2022-12-07T00:11:35;1.30;;;1.20;;
24729;SDS011;12832;52.392;13.066;2022-12-07T00:14:05;1.27;;;1.17;;
24729;SDS011;12832;52.392;13.066;2022-12-07T00:16:33;1.30;;;1.20;;
24729;SDS011;12832;52.392;13.066;2022-12-07T00:19:00;1.65;;;1.27;;
24729;SDS011;12832;52.392;13.066;2022-12-07T00:21:27;1.25;;;1.15;;
24729;SDS011;12832;52.392;13.066;2022-12-07T00:23:56;1.20;;;1.10;;
24729;SDS011;12832;52.392;13.066;2022-12-07T00:26:23;0.95;;;0.95;;
24729;SDS011;12832;52.392;13.066;2022-12-07T00:28:58;1.30;;;1.20;;
24729;SDS011;12832;52.392;13.066;2022-12-07T00:31:27;1.45;;;1.35;;
24729;SDS011;12832;52.392;13.066;2022-12-07T00:33:57;1.30;;;1.20;;
24729;SDS011;12832;52.392;13.066;2022-12-07T00:36:24;1.13;;;1.02;;
24729;SDS011;12832;52.392;13.066;2022-12-07T00:38:53;1.20;;;1.10;;
24729;SDS011;12832;52.392;13.066;2022-12-07T00:41:21;1.13;;;1.10;;
24729;SDS011;12832;52.392;13.066;2022-12-07T00:43:49;1.20;;;1.10;;
24729;SDS011;12832;52.392;13.066;2022-12-07T00:46:16;1.20;;;1.10;;
24729;SDS011;12832;52.392;13.066;2022-12-07T00:48:43;1.30;;;1.20;;
24729;SDS011;12832;52.392;13.066;2022-12-07T00:51:10;1.30;;;1.20;;
24729;SDS011;12832;52.392;13.066;2022-12-07T00:53:38;1.15;;;1.05;;
24729;SDS011;12832;52.392;13.066;2022-12-07T00:56:07;1.20;;;1.10;;
24729;SDS011;12832;52.392;13.066;2022-12-07T00:58:37;1.27;;;1.17;;
24729;SDS011;12832;52.392;13.066;2022-12-07T01:01:04;1.20;;;1.10;;
24729;SDS011;12832;52.392;13.066;2022-12-07T01:03:31;1.15;;;0.98;;
24729;SDS011;12832;52.392;13.066;2022-12-07T01:05:58;1.30;;;1.20;;
24729;SDS011;12832;52.392;13.066;2022-12-07T01:08:24;1.25;;;1.15;;
24729;SDS011;12832;52.392;13.066;2022-12-07T01:11:02;1.00;;;1.00;;
24729;SDS011;12832;52.392;13.066;2022-12-07T01:13:30;1.00;;;1.00;;
24729;SDS011;12832;52.392;13.066;2022-12-07T01:15:58;1.10;;;1.00;;
24729;SDS011;12832;52.392;13.066;2022-12-07T01:18:29;1.48;;;1.38;;
24729;SDS011;12832;52.392;13.066;2022-12-07T01:23:32;1.00;;;1.00;;
24729;SDS011;12832;52.392;13.066;2022-12-07T01:26:00;1.50;;;1.23;;
24729;SDS011;12832;52.392;13.066;2022-12-07T01:28:28;1.27;;;1.17;;
24729;SDS011;12832;52.392;13.066;2022-12-07T01:30:56;1.60;;;1.38;;
24729;SDS011;12832;52.392;13.066;2022-12-07T01:33:26;1.75;;;1.48;;
24729;SDS011;12832;52.392;13.066;2022-12-07T01:35:54;1.30;;;1.20;;
24729;SDS011;12832;52.392;13.066;2022-12-07T01:38:20;1.20;;;1.10;;
24729;SDS011;12832;52.392;13.066;2022-12-07T01:40:53;1.13;;;1.00;;
24729;SDS011;12832;52.392;13.066;2022-12-07T01:43:20;1.20;;;1.15;;
24729;SDS011;12832;52.392;13.066;2022-12-07T01:45:46;1.45;;;1.35;;
24729;SDS011;12832;52.392;13.066;2022-12-07T01:48:13;1.40;;;1.30;;
24729;SDS011;12832;52.392;13.066;2022-12-07T01:50:43;1.30;;;1.20;;
24729;SDS011;12832;52.392;13.066;2022-12-07T01:53:13;1.30;;;1.20;;
24729;SDS011;12832;52.392;13.066;2022-12-07T01:55:41;1.13;;;1.00;;
24729;SDS011;12832;52.392;13.066;2022-12-07T01:58:10;1.40;;;1.30;;
24729;SDS011;12832;52.392;13.066;2022-12-07T02:00:37;1.35;;;1.15;;
24729;SDS011;12832;52.392;13.066;2022-12-07T02:03:09;1.20;;;1.10;;
24729;SDS011;12832;52.392;13.066;2022-12-07T02:05:41;1.00;;;1.00;;
24729;SDS011;12832;52.392;13.066;2022-12-07T02:08:08;1.35;;;1.20;;
24729;SDS011;12832;52.392;13.066;2022-12-07T02:10:36;1.20;;;1.10;;
24729;SDS011;12832;52.392;13.066;2022-12-07T02:13:06;1.08;;;1.02;;
24729;SDS011;12832;52.392;13.066;2022-12-07T02:15:39;0.85;;;0.85;;
24729;SDS011;12832;52.392;13.066;2022-12-07T02:18:43;0.98;;;0.98;;
24729;SDS011;12832;52.392;13.066;2022-12-07T02:24:15;1.15;;;1.00;;
24729;SDS011;12832;52.392;13.066;2022-12-07T02:30:08;1.20;;;1.10;;
24729;SDS011;12832;52.392;13.066;2022-12-07T02:32:42;1.05;;;0.95;;
24729;SDS011;12832;52.392;13.066;2022-12-07T02:35:32;1.38;;;1.27;;
24729;SDS011;12832;52.392;13.066;2022-12-07T02:38:12;1.40;;;1.30;;
24729;SDS011;12832;52.392;13.066;2022-12-07T02:43:33;1.13;;;1.05;;
24729;SDS011;12832;52.392;13.066;2022-12-07T02:46:08;1.45;;;0.98;;
24729;SDS011;12832;52.392;13.066;2022-12-07T02:48:39;0.80;;;0.80;;
24729;SDS011;12832;52.392;13.066;2022-12-07T02:51:08;1.20;;;1.10;;
24729;SDS011;12832;52.392;13.066;2022-12-07T02:53:41;1.55;;;1.45;;
24729;SDS011;12832;52.392;13.066;2022-12-07T03:01:51;1.30;;;1.20;;
24729;SDS011;12832;52.392;13.066;2022-12-07T03:07:09;1.20;;;1.10;;
24729;SDS011;12832;52.392;13.066;2022-12-07T03:10:07;1.20;;;1.10;;
24729;SDS011;12832;52.392;13.066;2022-12-07T03:13:19;1.20;;;1.10;;
24729;SDS011;12832;52.392;13.066;2022-12-07T03:15:54;1.20;;;1.10;;
24729;SDS011;12832;52.392;13.066;2022-12-07T03:18:52;1.20;;;1.10;;
24729;SDS011;12832;52.392;13.066;2022-12-07T03:21:32;1.65;;;0.93;;
24729;SDS011;12832;52.392;13.066;2022-12-07T03:24:05;1.30;;;1.20;;
24729;SDS011;12832;52.392;13.066;2022-12-07T03:26:38;1.10;;;1.00;;
24729;SDS011;12832;52.392;13.066;2022-12-07T03:29:20;1.20;;;1.10;;
24729;SDS011;12832;52.392;13.066;2022-12-07T03:31:55;1.20;;;1.10;;
24729;SDS011;12832;52.392;13.066;2022-12-07T03:34:29;0.98;;;0.98;;
24729;SDS011;12832;52.392;13.066;2022-12-07T03:37:11;1.15;;;1.05;;
24729;SDS011;12832;52.392;13.066;2022-12-07T03:39:45;1.17;;;1.08;;
24729;SDS011;12832;52.392;13.066;2022-12-07T03:42:18;1.17;;;1.10;;
24729;SDS011;12832;52.392;13.066;2022-12-07T03:44:44;1.15;;;1.08;;
24729;SDS011;12832;52.392;13.066;2022-12-07T03:47:16;1.05;;;1.00;;
24729;SDS011;12832;52.392;13.066;2022-12-07T03:49:54;1.30;;;1.20;;
24729;SDS011;12832;52.392;13.066;2022-12-07T03:52:41;1.10;;;1.00;;
24729;SDS011;12832;52.392;13.066;2022-12-07T03:57:49;1.13;;;1.10;;
24729;SDS011;12832;52.392;13.066;2022-12-07T04:00:20;0.93;;;0.90;;
24729;SDS011;12832;52.392;13.066;2022-12-07T04:02:46;1.17;;;1.08;;
24729;SDS011;12832;52.392;13.066;2022-12-07T04:05:13;1.10;;;1.00;;
24729;SDS011;12832;52.392;13.066;2022-12-07T04:07:39;1.25;;;1.15;;
24729;SDS011;12832;52.392;13.066;2022-12-07T04:10:06;1.20;;;1.10;;
24729;SDS011;12832;52.392;13.066;2022-12-07T04:12:33;1.10;;;1.00;;
24729;SDS011;12832;52.392;13.066;2022-12-07T04:14:59;1.05;;;0.95;;
24729;SDS011;12832;52.392;13.066;2022-12-07T04:17:25;1.20;;;1.05;;
24729;SDS011;12832;52.392;13.066;2022-12-07T04:19:51;1.05;;;1.00;;
24729;SDS011;12832;52.392;13.066;2022-12-07T04:22:17;0.95;;;0.95;;
24729;SDS011;12832;52.392;13.066;2022-12-07T04:24:43;0.70;;;0.70;;
24729;SDS011;12832;52.392;13.066;2022-12-07T04:27:09;1.60;;;1.10;;
24729;SDS011;12832;52.392;13.066;2022-12-07T04:29:35;0.80;;;0.80;;
24729;SDS011;12832;52.392;13.066;2022-12-07T04:32:01;0.90;;;0.90;;
24729;SDS011;12832;52.392;13.066;2022-12-07T04:34:28;0.95;;;0.95;;
24729;SDS011;12832;52.392;13.066;2022-12-07T04:36:54;0.77;;;0.77;;
24729;SDS011;12832;52.392;13.066;2022-12-07T04:39:30;1.23;;;1.13;;
24729;SDS011;12832;52.392;13.066;2022-12-07T04:41:57;1.17;;;1.10;;
24729;SDS011;12832;52.392;13.066;2022-12-07T04:44:24;0.80;;;0.80;;
24729;SDS011;12832;52.392;13.066;2022-12-07T04:46:51;0.90;;;0.90;;
24729;SDS011;12832;52.392;13.066;2022-12-07T04:49:18;0.90;;;0.90;;
24729;SDS011;12832;52.392;13.066;2022-12-07T04:51:45;1.08;;;1.00;;
24729;SDS011;12832;52.392;13.066;2022-12-07T04:54:12;1.13;;;1.02;;
24729;SDS011;12832;52.392;13.066;2022-12-07T04:56:39;1.05;;;1.00;;
24729;SDS011;12832;52.392;13.066;2022-12-07T04:59:06;1.35;;;1.02;;
24729;SDS011;12832;52.392;13.066;2022-12-07T05:01:32;1.00;;;1.00;;
24729;SDS011;12832;52.392;13.066;2022-12-07T05:03:59;0.90;;;0.90;;
24729;SDS011;12832;52.392;13.066;2022-12-07T05:06:25;1.20;;;1.10;;
24729;SDS011;12832;52.392;13.066;2022-12-07T05:08:51;1.10;;;1.00;;
24729;SDS011;12832;52.392;13.066;2022-12-07T05:11:17;0.80;;;0.80;;
24729;SDS011;12832;52.392;13.066;2022-12-07T05:14:03;1.20;;;1.10;;
24729;SDS011;12832;52.392;13.066;2022-12-07T05:16:30;1.30;;;1.20;;
24729;SDS011;12832;52.392;13.066;2022-12-07T05:18:56;1.25;;;0.90;;
24729;SDS011;12832;52.392;13.066;2022-12-07T05:21:23;0.90;;;0.90;;
24729;SDS011;12832;52.392;13.066;2022-12-07T05:23:49;0.85;;;0.85;;
24729;SDS011;12832;52.392;13.066;2022-12-07T05:26:15;1.10;;;1.00;;
24729;SDS011;12832;52.392;13.066;2022-12-07T05:28:42;1.20;;;1.10;;
24729;SDS011;12832;52.392;13.066;2022-12-07T05:31:08;1.00;;;1.00;;
24729;SDS011;12832;52.392;13.066;2022-12-07T05:33:34;0.70;;;0.70;;
24729;SDS011;12832;52.392;13.066;2022-12-07T05:36:00;1.00;;;1.00;;
24729;SDS011;12832;52.392;13.066;2022-12-07T05:38:32;0.98;;;0.98;;
24729;SDS011;12832;52.392;13.066;2022-12-07T05:41:01;0.90;;;0.90;;
24729;SDS011;12832;52.392;13.066;2022-12-07T05:43:29;0.82;;;0.82;;
24729;SDS011;12832;52.392;13.066;2022-12-07T05:45:56;1.35;;;1.15;;
24729;SDS011;12832;52.392;13.066;2022-12-07T05:48:22;0.90;;;0.90;;
24729;SDS011;12832;52.392;13.066;2022-12-07T05:50:49;0.98;;;0.95;;
24729;SDS011;12832;52.392;13.066;2022-12-07T05:53:16;0.90;;;0.80;;
24729;SDS011;12832;52.392;13.066;2022-12-07T05:55:48;1.58;;;0.90;;
24729;SDS011;12832;52.392;13.066;2022-12-07T05:58:14;1.20;;;1.05;;
24729;SDS011;12832;52.392;13.066;2022-12-07T06:00:59;0.88;;;0.88;;
24729;SDS011;12832;52.392;13.066;2022-12-07T06:03:25;1.33;;;1.10;;
24729;SDS011;12832;52.392;13.066;2022-12-07T06:05:51;1.10;;;1.00;;
24729;SDS011;12832;52.392;13.066;2022-12-07T06:08:18;1.40;;;1.30;;
24729;SDS011;12832;52.392;13.066;2022-12-07T06:10:46;1.30;;;1.20;;
24729;SDS011;12832;52.392;13.066;2022-12-07T06:13:32;1.40;;;1.30;;
24729;SDS011;12832;52.392;13.066;2022-12-07T06:15:58;0.80;;;0.80;;
24729;SDS011;12832;52.392;13.066;2022-12-07T06:18:25;1.20;;;1.08;;
24729;SDS011;12832;52.392;13.066;2022-12-07T06:20:51;1.33;;;1.20;;
24729;SDS011;12832;52.392;13.066;2022-12-07T06:23:17;1.50;;;1.40;;
24729;SDS011;12832;52.392;13.066;2022-12-07T06:25:45;1.30;;;1.20;;
24729;SDS011;12832;52.392;13.066;2022-12-07T06:28:11;1.30;;;1.20;;
24729;SDS011;12832;52.392;13.066;2022-12-07T06:30:37;1.27;;;1.17;;
24729;SDS011;12832;52.392;13.066;2022-12-07T06:33:03;1.40;;;1.30;;
24729;SDS011;12832;52.392;13.066;2022-12-07T06:35:29;1.60;;;1.50;;
24729;SDS011;12832;52.392;13.066;2022-12-07T06:37:58;1.42;;;1.33;;
24729;SDS011;12832;52.392;13.066;2022-12-07T06:40:24;3.25;;;1.67;;
24729;SDS011;12832;52.392;13.066;2022-12-07T06:42:50;1.50;;;1.40;;
24729;SDS011;12832;52.392;13.066;2022-12-07T06:45:16;1.90;;;1.80;;
24729;SDS011;12832;52.392;13.066;2022-12-07T06:47:42;2.03;;;1.50;;
24729;SDS011;12832;52.392;13.066;2022-12-07T06:50:12;2.45;;;1.75;;
24729;SDS011;12832;52.392;13.066;2022-12-07T06:52:38;1.50;;;1.40;;
24729;SDS011;12832;52.392;13.066;2022-12-07T06:55:04;1.70;;;1.60;;
24729;SDS011;12832;52.392;13.066;2022-12-07T06:57:30;1.60;;;1.50;;
24729;SDS011;12832;52.392;13.066;2022-12-07T06:59:56;1.60;;;1.50;;
24729;SDS011;12832;52.392;13.066;2022-12-07T07:02:23;2.60;;;1.60;;
24729;SDS011;12832;52.392;13.066;2022-12-07T07:04:49;8.32;;;2.20;;
24729;SDS011;12832;52.392;13.066;2022-12-07T07:07:15;3.55;;;1.90;;
24729;SDS011;12832;52.392;13.066;2022-12-07T07:09:41;115.35;;;10.48;;
24729;SDS011;12832;52.392;13.066;2022-12-07T07:12:07;37.35;;;4.38;;
24729;SDS011;12832;52.392;13.066;2022-12-07T07:14:33;23.00;;;3.60;;
24729;SDS011;12832;52.392;13.066;2022-12-07T07:16:59;4.13;;;2.47;;
24729;SDS011;12832;52.392;13.066;2022-12-07T07:19:25;13.32;;;2.17;;
24729;SDS011;12832;52.392;13.066;2022-12-07T07:21:51;6.88;;;2.38;;
24729;SDS011;12832;52.392;13.066;2022-12-07T07:24:18;4.85;;;1.73;;
24729;SDS011;12832;52.392;13.066;2022-12-07T07:26:44;9.43;;;2.10;;
24729;SDS011;12832;52.392;13.066;2022-12-07T07:29:10;4.25;;;1.58;;
24729;SDS011;12832;52.392;13.066;2022-12-07T07:31:36;6.55;;;2.15;;
24729;SDS011;12832;52.392;13.066;2022-12-07T07:34:02;4.72;;;1.80;;
24729;SDS011;12832;52.392;13.066;2022-12-07T07:36:29;7.93;;;1.83;;
24729;SDS011;12832;52.392;13.066;2022-12-07T07:38:55;6.65;;;2.47;;
24729;SDS011;12832;52.392;13.066;2022-12-07T07:41:21;6.28;;;1.98;;
24729;SDS011;12832;52.392;13.066;2022-12-07T07:43:47;3.85;;;1.70;;
24729;SDS011;12832;52.392;13.066;2022-12-07T07:46:13;4.95;;;1.70;;
24729;SDS011;12832;52.392;13.066;2022-12-07T07:48:40;3.25;;;1.67;;
24729;SDS011;12832;52.392;13.066;2022-12-07T07:51:06;4.13;;;1.92;;
24729;SDS011;12832;52.392;13.066;2022-12-07T07:53:32;3.65;;;1.70;;
24729;SDS011;12832;52.392;13.066;2022-12-07T07:55:59;4.38;;;2.03;;
24729;SDS011;12832;52.392;13.066;2022-12-07T07:58:25;3.28;;;1.45;;
24729;SDS011;12832;52.392;13.066;2022-12-07T08:00:51;2.25;;;1.70;;
24729;SDS011;12832;52.392;13.066;2022-12-07T08:03:17;3.47;;;1.40;;
24729;SDS011;12832;52.392;13.066;2022-12-07T08:05:43;2.20;;;1.58;;
24729;SDS011;12832;52.392;13.066;2022-12-07T08:08:09;3.58;;;1.38;;
24729;SDS011;12832;52.392;13.066;2022-12-07T08:10:35;2.80;;;1.23;;
24729;SDS011;12832;52.392;13.066;2022-12-07T08:13:02;3.00;;;1.40;;
24729;SDS011;12832;52.392;13.066;2022-12-07T08:15:39;2.90;;;1.73;;
24729;SDS011;12832;52.392;13.066;2022-12-07T08:18:07;3.03;;;1.50;;
24729;SDS011;12832;52.392;13.066;2022-12-07T08:20:34;1.73;;;1.63;;
24729;SDS011;12832;52.392;13.066;2022-12-07T08:23:01;1.92;;;1.35;;
24729;SDS011;12832;52.392;13.066;2022-12-07T08:25:28;2.65;;;1.38;;
24729;SDS011;12832;52.392;13.066;2022-12-07T08:27:54;2.40;;;1.20;;
24729;SDS011;12832;52.392;13.066;2022-12-07T08:30:21;1.95;;;1.05;;
24729;SDS011;12832;52.392;13.066;2022-12-07T08:32:47;1.60;;;1.33;;
24729;SDS011;12832;52.392;13.066;2022-12-07T08:35:14;1.10;;;0.90;;
24729;SDS011;12832;52.392;13.066;2022-12-07T08:37:40;1.90;;;1.00;;
24729;SDS011;12832;52.392;13.066;2022-12-07T08:40:07;2.42;;;1.00;;
24729;SDS011;12832;52.392;13.066;2022-12-07T08:42:35;1.05;;;0.95;;
24729;SDS011;12832;52.392;13.066;2022-12-07T08:45:06;1.33;;;0.80;;
24729;SDS011;12832;52.392;13.066;2022-12-07T08:47:34;1.00;;;0.90;;
24729;SDS011;12832;52.392;13.066;2022-12-07T08:50:03;2.28;;;0.80;;
24729;SDS011;12832;52.392;13.066;2022-12-07T08:52:31;1.10;;;0.73;;
24729;SDS011;12832;52.392;13.066;2022-12-07T08:54:58;1.40;;;0.80;;
24729;SDS011;12832;52.392;13.066;2022-12-07T08:57:27;0.75;;;0.63;;
24729;SDS011;12832;52.392;13.066;2022-12-07T08:59:54;2.58;;;0.90;;
24729;SDS011;12832;52.392;13.066;2022-12-07T09:02:20;0.80;;;0.60;;
24729;SDS011;12832;52.392;13.066;2022-12-07T09:04:46;1.95;;;0.80;;
24729;SDS011;12832;52.392;13.066;2022-12-07T09:07:12;0.85;;;0.70;;
24729;SDS011;12832;52.392;13.066;2022-12-07T09:09:38;0.60;;;0.60;;
24729;SDS011;12832;52.392;13.066;2022-12-07T09:12:04;0.82;;;0.73;;
24729;SDS011;12832;52.392;13.066;2022-12-07T09:14:30;1.25;;;0.50;;
24729;SDS011;12832;52.392;13.066;2022-12-07T09:17:04;0.90;;;0.70;;
24729;SDS011;12832;52.392;13.066;2022-12-07T09:19:35;0.95;;;0.65;;
24729;SDS011;12832;52.392;13.066;2022-12-07T09:22:01;0.70;;;0.70;;
24729;SDS011;12832;52.392;13.066;2022-12-07T09:24:28;0.80;;;0.65;;
24729;SDS011;12832;52.392;13.066;2022-12-07T09:26:54;0.50;;;0.50;;
24729;SDS011;12832;52.392;13.066;2022-12-07T09:29:20;1.33;;;0.70;;
24729;SDS011;12832;52.392;13.066;2022-12-07T09:31:46;1.10;;;0.70;;
24729;SDS011;12832;52.392;13.066;2022-12-07T09:34:13;0.77;;;0.63;;
24729;SDS011;12832;52.392;13.066;2022-12-07T09:36:39;1.00;;;0.60;;
24729;SDS011;12832;52.392;13.066;2022-12-07T09:39:05;1.30;;;0.52;;
24729;SDS011;12832;52.392;13.066;2022-12-07T09:41:31;2.17;;;0.70;;
24729;SDS011;12832;52.392;13.066;2022-12-07T09:44:02;1.35;;;0.57;;
24729;SDS011;12832;52.392;13.066;2022-12-07T09:46:35;1.55;;;0.63;;
24729;SDS011;12832;52.392;13.066;2022-12-07T09:49:04;0.47;;;0.47;;
24729;SDS011;12832;52.392;13.066;2022-12-07T09:51:31;0.50;;;0.43;;
24729;SDS011;12832;52.392;13.066;2022-12-07T09:53:57;2.05;;;0.73;;
24729;SDS011;12832;52.392;13.066;2022-12-07T09:56:24;0.90;;;0.80;;
24729;SDS011;12832;52.392;13.066;2022-12-07T09:59:01;0.40;;;0.40;;
24729;SDS011;12832;52.392;13.066;2022-12-07T10:01:30;0.47;;;0.30;;
24729;SDS011;12832;52.392;13.066;2022-12-07T10:04:02;0.45;;;0.40;;
24729;SDS011;12832;52.392;13.066;2022-12-07T10:06:43;2.10;;;0.60;;
24729;SDS011;12832;52.392;13.066;2022-12-07T10:09:16;0.70;;;0.50;;
24729;SDS011;12832;52.392;13.066;2022-12-07T10:14:35;0.57;;;0.52;;
24729;SDS011;12832;52.392;13.066;2022-12-07T10:17:36;0.95;;;0.50;;
24729;SDS011;12832;52.392;13.066;2022-12-07T10:22:56;0.68;;;0.40;;
24729;SDS011;12832;52.392;13.066;2022-12-07T10:25:26;1.05;;;0.30;;
24729;SDS011;12832;52.392;13.066;2022-12-07T10:36:17;1.38;;;0.60;;
24729;SDS011;12832;52.392;13.066;2022-12-07T10:38:51;0.60;;;0.50;;
24729;SDS011;12832;52.392;13.066;2022-12-07T10:41:49;0.60;;;0.60;;
24729;SDS011;12832;52.392;13.066;2022-12-07T10:44:26;2.35;;;0.65;;
24729;SDS011;12832;52.392;13.066;2022-12-07T10:50:10;0.63;;;0.43;;
24729;SDS011;12832;52.392;13.066;2022-12-07T10:52:21;0.75;;;0.60;;
24729;SDS011;12832;52.392;13.066;2022-12-07T11:03:31;0.63;;;0.43;;
24729;SDS011;12832;52.392;13.066;2022-12-07T11:11:32;1.00;;;0.52;;
24729;SDS011;12832;52.392;13.066;2022-12-07T11:16:47;0.50;;;0.50;;
24729;SDS011;12832;52.392;13.066;2022-12-07T11:22:16;0.38;;;0.38;;
24729;SDS011;12832;52.392;13.066;2022-12-07T11:33:39;0.60;;;0.60;;
24729;SDS011;12832;52.392;13.066;2022-12-07T11:41:52;0.73;;;0.52;;
24729;SDS011;12832;52.392;13.066;2022-12-07T11:47:08;0.63;;;0.50;;
24729;SDS011;12832;52.392;13.066;2022-12-07T11:49:54;0.95;;;0.50;;
24729;SDS011;12832;52.392;13.066;2022-12-07T11:55:52;0.40;;;0.40;;
24729;SDS011;12832;52.392;13.066;2022-12-07T12:01:26;0.70;;;0.60;;
24729;SDS011;12832;52.392;13.066;2022-12-07T12:06:36;1.33;;;0.70;;
24729;SDS011;12832;52.392;13.066;2022-12-07T12:09:14;0.75;;;0.60;;
24729;SDS011;12832;52.392;13.066;2022-12-07T12:13:03;0.75;;;0.57;;
24729;SDS011;12832;52.392;13.066;2022-12-07T12:18:26;1.15;;;0.70;;
24729;SDS011;12832;52.392;13.066;2022-12-07T12:21:16;0.60;;;0.50;;
24729;SDS011;12832;52.392;13.066;2022-12-07T12:23:49;0.65;;;0.45;;
24729;SDS011;12832;52.392;13.066;2022-12-07T12:26:36;0.77;;;0.50;;
24729;SDS011;12832;52.392;13.066;2022-12-07T12:29:17;0.70;;;0.50;;
24729;SDS011;12832;52.392;13.066;2022-12-07T12:32:04;1.13;;;0.63;;
24729;SDS011;12832;52.392;13.066;2022-12-07T12:45:28;0.70;;;0.55;;
24729;SDS011;12832;52.392;13.066;2022-12-07T12:48:30;1.20;;;0.50;;
24729;SDS011;12832;52.392;13.066;2022-12-07T12:54:03;1.33;;;0.60;;
24729;SDS011;12832;52.392;13.066;2022-12-07T12:56:41;1.45;;;0.60;;
24729;SDS011;12832;52.392;13.066;2022-12-07T13:01:47;1.05;;;0.32;;
24729;SDS011;12832;52.392;13.066;2022-12-07T13:04:23;1.23;;;0.40;;
24729;SDS011;12832;52.392;13.066;2022-12-07T13:06:56;1.10;;;0.60;;
24729;SDS011;12832;52.392;13.066;2022-12-07T13:09:23;1.85;;;1.00;;
24729;SDS011;12832;52.392;13.066;2022-12-07T13:11:56;0.75;;;0.50;;
24729;SDS011;12832;52.392;13.066;2022-12-07T13:20:04;0.60;;;0.40;;
24729;SDS011;12832;52.392;13.066;2022-12-07T13:22:40;0.40;;;0.30;;
24729;SDS011;12832;52.392;13.066;2022-12-07T13:25:19;0.63;;;0.40;;
24729;SDS011;12832;52.392;13.066;2022-12-07T13:27:59;1.15;;;0.52;;
24729;SDS011;12832;52.392;13.066;2022-12-07T13:30:32;0.75;;;0.40;;
24729;SDS011;12832;52.392;13.066;2022-12-07T13:33:10;0.95;;;0.30;;
24729;SDS011;12832;52.392;13.066;2022-12-07T13:35:37;0.90;;;0.47;;
24729;SDS011;12832;52.392;13.066;2022-12-07T13:38:05;0.88;;;0.50;;
24729;SDS011;12832;52.392;13.066;2022-12-07T13:40:42;1.40;;;0.60;;
24729;SDS011;12832;52.392;13.066;2022-12-07T13:43:14;0.80;;;0.40;;
24729;SDS011;12832;52.392;13.066;2022-12-07T13:45:42;1.00;;;0.50;;
24729;SDS011;12832;52.392;13.066;2022-12-07T13:48:27;1.67;;;0.65;;
24729;SDS011;12832;52.392;13.066;2022-12-07T13:50:58;0.88;;;0.60;;
24729;SDS011;12832;52.392;13.066;2022-12-07T13:53:26;1.73;;;0.50;;
24729;SDS011;12832;52.392;13.066;2022-12-07T13:55:56;3.38;;;0.50;;
24729;SDS011;12832;52.392;13.066;2022-12-07T13:58:33;0.82;;;0.47;;
24729;SDS011;12832;52.392;13.066;2022-12-07T14:00:59;1.58;;;0.50;;
24729;SDS011;12832;52.392;13.066;2022-12-07T14:03:27;0.68;;;0.50;;
24729;SDS011;12832;52.392;13.066;2022-12-07T14:06:06;1.33;;;0.50;;
24729;SDS011;12832;52.392;13.066;2022-12-07T14:08:39;1.02;;;0.50;;
24729;SDS011;12832;52.392;13.066;2022-12-07T14:11:05;0.80;;;0.45;;
24729;SDS011;12832;52.392;13.066;2022-12-07T14:13:37;1.05;;;0.50;;
24729;SDS011;12832;52.392;13.066;2022-12-07T14:16:24;0.80;;;0.45;;
24729;SDS011;12832;52.392;13.066;2022-12-07T14:18:57;0.63;;;0.50;;
24729;SDS011;12832;52.392;13.066;2022-12-07T14:21:25;0.63;;;0.35;;
24729;SDS011;12832;52.392;13.066;2022-12-07T14:24:09;3.13;;;0.85;;
24729;SDS011;12832;52.392;13.066;2022-12-07T14:26:47;1.00;;;0.52;;
24729;SDS011;12832;52.392;13.066;2022-12-07T14:29:18;0.75;;;0.52;;
24729;SDS011;12832;52.392;13.066;2022-12-07T14:31:44;2.97;;;0.75;;
24729;SDS011;12832;52.392;13.066;2022-12-07T14:34:13;0.90;;;0.40;;
24729;SDS011;12832;52.392;13.066;2022-12-07T14:36:40;0.73;;;0.50;;
24729;SDS011;12832;52.392;13.066;2022-12-07T14:39:06;1.88;;;0.75;;
24729;SDS011;12832;52.392;13.066;2022-12-07T14:41:38;1.55;;;0.60;;
24729;SDS011;12832;52.392;13.066;2022-12-07T14:44:18;0.90;;;0.60;;
24729;SDS011;12832;52.392;13.066;2022-12-07T14:46:52;1.67;;;0.60;;
24729;SDS011;12832;52.392;13.066;2022-12-07T14:49:38;0.90;;;0.60;;
24729;SDS011;12832;52.392;13.066;2022-12-07T14:52:05;1.10;;;0.47;;
24729;SDS011;12832;52.392;13.066;2022-12-07T14:54:56;0.82;;;0.50;;
24729;SDS011;12832;52.392;13.066;2022-12-07T14:57:22;0.98;;;0.40;;
24729;SDS011;12832;52.392;13.066;2022-12-07T14:59:49;1.67;;;0.60;;
24729;SDS011;12832;52.392;13.066;2022-12-07T15:02:15;0.95;;;0.57;;
24729;SDS011;12832;52.392;13.066;2022-12-07T15:04:41;1.92;;;0.60;;
24729;SDS011;12832;52.392;13.066;2022-12-07T15:07:26;0.63;;;0.47;;
24729;SDS011;12832;52.392;13.066;2022-12-07T15:09:52;1.40;;;0.45;;
24729;SDS011;12832;52.392;13.066;2022-12-07T15:12:18;1.75;;;0.70;;
24729;SDS011;12832;52.392;13.066;2022-12-07T15:14:44;1.65;;;0.60;;
24729;SDS011;12832;52.392;13.066;2022-12-07T15:17:11;2.08;;;0.50;;
24729;SDS011;12832;52.392;13.066;2022-12-07T15:19:53;0.80;;;0.40;;
24729;SDS011;12832;52.392;13.066;2022-12-07T15:22:19;0.95;;;0.55;;
24729;SDS011;12832;52.392;13.066;2022-12-07T15:24:45;0.82;;;0.50;;
24729;SDS011;12832;52.392;13.066;2022-12-07T15:27:11;0.85;;;0.60;;
24729;SDS011;12832;52.392;13.066;2022-12-07T15:29:37;1.02;;;0.50;;
24729;SDS011;12832;52.392;13.066;2022-12-07T15:32:03;0.93;;;0.47;;
24729;SDS011;12832;52.392;13.066;2022-12-07T15:34:29;1.92;;;0.68;;
24729;SDS011;12832;52.392;13.066;2022-12-07T15:37:05;0.90;;;0.50;;
24729;SDS011;12832;52.392;13.066;2022-12-07T15:39:31;0.80;;;0.50;;
24729;SDS011;12832;52.392;13.066;2022-12-07T15:41:58;1.20;;;0.60;;
24729;SDS011;12832;52.392;13.066;2022-12-07T15:44:24;1.33;;;0.50;;
24729;SDS011;12832;52.392;13.066;2022-12-07T15:47:09;3.97;;;0.60;;
24729;SDS011;12832;52.392;13.066;2022-12-07T15:49:35;0.90;;;0.57;;
24729;SDS011;12832;52.392;13.066;2022-12-07T15:52:01;1.88;;;0.60;;
24729;SDS011;12832;52.392;13.066;2022-12-07T15:54:27;1.23;;;0.68;;
24729;SDS011;12832;52.392;13.066;2022-12-07T15:56:54;1.77;;;0.70;;
24729;SDS011;12832;52.392;13.066;2022-12-07T15:59:21;2.08;;;0.60;;
24729;SDS011;12832;52.392;13.066;2022-12-07T16:01:48;1.70;;;0.70;;
24729;SDS011;12832;52.392;13.066;2022-12-07T16:04:14;1.40;;;0.55;;
24729;SDS011;12832;52.392;13.066;2022-12-07T16:06:40;1.08;;;0.60;;
24729;SDS011;12832;52.392;13.066;2022-12-07T16:09:07;1.05;;;0.55;;
24729;SDS011;12832;52.392;13.066;2022-12-07T16:11:33;1.10;;;0.57;;
24729;SDS011;12832;52.392;13.066;2022-12-07T16:13:59;0.90;;;0.52;;
24729;SDS011;12832;52.392;13.066;2022-12-07T16:16:25;1.60;;;0.70;;
24729;SDS011;12832;52.392;13.066;2022-12-07T16:18:53;0.70;;;0.60;;
24729;SDS011;12832;52.392;13.066;2022-12-07T16:21:19;1.17;;;0.60;;
24729;SDS011;12832;52.392;13.066;2022-12-07T16:23:50;1.67;;;0.77;;
24729;SDS011;12832;52.392;13.066;2022-12-07T16:26:18;1.27;;;0.65;;
24729;SDS011;12832;52.392;13.066;2022-12-07T16:28:48;1.02;;;0.60;;
24729;SDS011;12832;52.392;13.066;2022-12-07T16:31:16;1.30;;;0.80;;
24729;SDS011;12832;52.392;13.066;2022-12-07T16:33:44;1.83;;;0.60;;
24729;SDS011;12832;52.392;13.066;2022-12-07T16:36:11;1.02;;;0.60;;
24729;SDS011;12832;52.392;13.066;2022-12-07T16:38:39;0.85;;;0.70;;
24729;SDS011;12832;52.392;13.066;2022-12-07T16:41:05;2.60;;;0.80;;
24729;SDS011;12832;52.392;13.066;2022-12-07T16:43:32;2.00;;;0.90;;